Terminal Aerodrome Forecast
Issued by NWS Wilmington, OH

Current Version | Previous Version | Graphics & Text | Print | Product List | Glossary On
Versions: 1 2 3 4 5 6 7 8 9 10 11 12 13 14 15 16 17 18 19 20 21 22 23 24 25 26 27 28 29 30 31 32 33
097
FTUS41 KILN 301742
TAFCVG
TAF
KCVG 301742Z 3018/0124 11010KT 2SM SHRA BR SCT007 OVC015
     FM302100 13010KT 2SM BR VCSH OVC007
     FM010000 17010KT 4SM BR VCTS BKN015CB
      TEMPO 0103/0107 2SM SHRA BR OVC008
     FM010700 18006KT 4SM BR OVC007
     FM011400 24005KT P6SM BKN015
     FM011800 23006KT P6SM BKN035=

USA.gov is the U.S. government's official web portal to all federal, state and local government web resources and services.